<?xml version="1.0" encoding="UTF-8"?>
<gpx xmlns="http://www.topografix.com/GPX/1/1" xmlns:xsi="http://www.w3.org/2001/XMLSchema-instance" version="1.1" xsi:schemaLocation="http://www.topografix.com/GPX/1/1 http://www.topografix.com/GPX/1/1/gpx.xsd">
  <metadata>
    <name>FCA Splash, Mash, and Dash Triathlon Duathlon Challenge 2022</name>
  </metadata>
  <trk>
    <name>FCA Splash, Mash, and Dash Triathlon Duathlon Challenge 2022</name>
    <trkseg>
      <trkpt lat="31.143907" lon="-82.213653">
        <ele>36.461891</ele>
        <time>2024-06-08T07:38:00.000Z</time>
      </trkpt>
      <trkpt lat="31.143886" lon="-82.213632">
        <ele>36.461901</ele>
        <time>2024-06-08T07:38:00.000Z</time>
      </trkpt>
      <trkpt lat="31.142029" lon="-82.211938">
        <ele>34.570294</ele>
        <time>2024-06-08T07:38:26.000Z</time>
      </trkpt>
      <trkpt lat="31.141668" lon="-82.211479">
        <ele>34.187903</ele>
        <time>2024-06-08T07:38:32.000Z</time>
      </trkpt>
      <trkpt lat="31.138342" lon="-82.208996">
        <ele>35.445533</ele>
        <time>2024-06-08T07:39:16.000Z</time>
      </trkpt>
      <trkpt lat="31.137673" lon="-82.208519">
        <ele>36.24526</ele>
        <time>2024-06-08T07:39:25.000Z</time>
      </trkpt>
      <trkpt lat="31.137406" lon="-82.208319">
        <ele>36.585239</ele>
        <time>2024-06-08T07:39:29.000Z</time>
      </trkpt>
      <trkpt lat="31.137229" lon="-82.208258">
        <ele>36.748976</ele>
        <time>2024-06-08T07:39:31.000Z</time>
      </trkpt>
      <trkpt lat="31.137039" lon="-82.208269">
        <ele>36.866505</ele>
        <time>2024-06-08T07:39:33.000Z</time>
      </trkpt>
      <trkpt lat="31.136712" lon="-82.208392">
        <ele>37.073387</ele>
        <time>2024-06-08T07:39:37.000Z</time>
      </trkpt>
      <trkpt lat="31.136529" lon="-82.208561">
        <ele>37.218269</ele>
        <time>2024-06-08T07:39:40.000Z</time>
      </trkpt>
      <trkpt lat="31.136305" lon="-82.209082">
        <ele>37.525187</ele>
        <time>2024-06-08T07:39:46.000Z</time>
      </trkpt>
      <trkpt lat="31.136252" lon="-82.209394">
        <ele>37.691068</ele>
        <time>2024-06-08T07:39:49.000Z</time>
      </trkpt>
      <trkpt lat="31.136255" lon="-82.209697">
        <ele>37.780085</ele>
        <time>2024-06-08T07:39:52.000Z</time>
      </trkpt>
      <trkpt lat="31.13639" lon="-82.210526">
        <ele>37.034009</ele>
        <time>2024-06-08T07:40:00.000Z</time>
      </trkpt>
      <trkpt lat="31.13639" lon="-82.210836">
        <ele>36.753283</ele>
        <time>2024-06-08T07:40:03.000Z</time>
      </trkpt>
      <trkpt lat="31.136334" lon="-82.211034">
        <ele>36.566897</ele>
        <time>2024-06-08T07:40:05.000Z</time>
      </trkpt>
      <trkpt lat="31.136164" lon="-82.211285">
        <ele>36.287653</ele>
        <time>2024-06-08T07:40:08.000Z</time>
      </trkpt>
      <trkpt lat="31.135397" lon="-82.211945">
        <ele>35.298492</ele>
        <time>2024-06-08T07:40:19.000Z</time>
      </trkpt>
      <trkpt lat="31.135252" lon="-82.212249">
        <ele>35.005271</ele>
        <time>2024-06-08T07:40:22.000Z</time>
      </trkpt>
      <trkpt lat="31.135198" lon="-82.212573">
        <ele>34.707678</ele>
        <time>2024-06-08T07:40:25.000Z</time>
      </trkpt>
      <trkpt lat="31.135224" lon="-82.21286">
        <ele>34.458752</ele>
        <time>2024-06-08T07:40:28.000Z</time>
      </trkpt>
      <trkpt lat="31.135388" lon="-82.213151">
        <ele>34.15602</ele>
        <time>2024-06-08T07:40:31.000Z</time>
      </trkpt>
      <trkpt lat="31.135548" lon="-82.21337">
        <ele>34.142665</ele>
        <time>2024-06-08T07:40:34.000Z</time>
      </trkpt>
      <trkpt lat="31.135669" lon="-82.213645">
        <ele>34.171463</ele>
        <time>2024-06-08T07:40:37.000Z</time>
      </trkpt>
      <trkpt lat="31.135648" lon="-82.214645">
        <ele>34.263869</ele>
        <time>2024-06-08T07:40:47.000Z</time>
      </trkpt>
      <trkpt lat="31.135754" lon="-82.215035">
        <ele>34.301734</ele>
        <time>2024-06-08T07:40:51.000Z</time>
      </trkpt>
      <trkpt lat="31.136161" lon="-82.215484">
        <ele>34.335521</ele>
        <time>2024-06-08T07:40:57.000Z</time>
      </trkpt>
      <trkpt lat="31.136522" lon="-82.215742">
        <ele>34.356317</ele>
        <time>2024-06-08T07:41:02.000Z</time>
      </trkpt>
      <trkpt lat="31.137855" lon="-82.216714">
        <ele>34.457633</ele>
        <time>2024-06-08T07:41:19.000Z</time>
      </trkpt>
      <trkpt lat="31.138909" lon="-82.217509">
        <ele>34.558942</ele>
        <time>2024-06-08T07:41:33.000Z</time>
      </trkpt>
      <trkpt lat="31.139621" lon="-82.218211">
        <ele>34.586348</ele>
        <time>2024-06-08T07:41:43.000Z</time>
      </trkpt>
      <trkpt lat="31.140353" lon="-82.219367">
        <ele>34.672053</ele>
        <time>2024-06-08T07:41:57.000Z</time>
      </trkpt>
      <trkpt lat="31.140751" lon="-82.219899">
        <ele>34.756178</ele>
        <time>2024-06-08T07:42:04.000Z</time>
      </trkpt>
      <trkpt lat="31.141374" lon="-82.220915">
        <ele>35.051066</ele>
        <time>2024-06-08T07:42:16.000Z</time>
      </trkpt>
      <trkpt lat="31.141491" lon="-82.221261">
        <ele>35.246484</ele>
        <time>2024-06-08T07:42:20.000Z</time>
      </trkpt>
      <trkpt lat="31.141439" lon="-82.222009">
        <ele>35.629859</ele>
        <time>2024-06-08T07:42:27.000Z</time>
      </trkpt>
      <trkpt lat="31.141016" lon="-82.22264">
        <ele>36.033628</ele>
        <time>2024-06-08T07:42:35.000Z</time>
      </trkpt>
      <trkpt lat="31.140783" lon="-82.222916">
        <ele>36.216939</ele>
        <time>2024-06-08T07:42:39.000Z</time>
      </trkpt>
      <trkpt lat="31.134758" lon="-82.229941">
        <ele>40.704773</ele>
        <time>2024-06-08T07:44:14.000Z</time>
      </trkpt>
      <trkpt lat="31.134115" lon="-82.230643">
        <ele>40.846206</ele>
        <time>2024-06-08T07:44:24.000Z</time>
      </trkpt>
      <trkpt lat="31.133958" lon="-82.230881">
        <ele>40.890028</ele>
        <time>2024-06-08T07:44:27.000Z</time>
      </trkpt>
      <trkpt lat="31.133569" lon="-82.231704">
        <ele>41.001553</ele>
        <time>2024-06-08T07:44:36.000Z</time>
      </trkpt>
      <trkpt lat="31.13343" lon="-82.232567">
        <ele>41.043729</ele>
        <time>2024-06-08T07:44:44.000Z</time>
      </trkpt>
      <trkpt lat="31.133421" lon="-82.232817">
        <ele>41.055481</ele>
        <time>2024-06-08T07:44:46.000Z</time>
      </trkpt>
      <trkpt lat="31.133812" lon="-82.236223">
        <ele>41.325928</ele>
        <time>2024-06-08T07:45:19.000Z</time>
      </trkpt>
      <trkpt lat="31.133892" lon="-82.237317">
        <ele>41.321399</ele>
        <time>2024-06-08T07:45:29.000Z</time>
      </trkpt>
      <trkpt lat="31.134103" lon="-82.239274">
        <ele>41.109076</ele>
        <time>2024-06-08T07:45:48.000Z</time>
      </trkpt>
      <trkpt lat="31.134197" lon="-82.244093">
        <ele>40.459777</ele>
        <time>2024-06-08T07:46:34.000Z</time>
      </trkpt>
      <trkpt lat="31.135128" lon="-82.251537">
        <ele>38.667493</ele>
        <time>2024-06-08T07:47:46.000Z</time>
      </trkpt>
      <trkpt lat="31.134918" lon="-82.252161">
        <ele>38.577548</ele>
        <time>2024-06-08T07:47:52.000Z</time>
      </trkpt>
      <trkpt lat="31.133807" lon="-82.254414">
        <ele>38.849678</ele>
        <time>2024-06-08T07:48:17.000Z</time>
      </trkpt>
      <trkpt lat="31.132012" lon="-82.25816">
        <ele>38.990489</ele>
        <time>2024-06-08T07:48:58.000Z</time>
      </trkpt>
      <trkpt lat="31.131869" lon="-82.258575">
        <ele>38.993164</ele>
        <time>2024-06-08T07:49:02.000Z</time>
      </trkpt>
      <trkpt lat="31.131877" lon="-82.258979">
        <ele>38.995591</ele>
        <time>2024-06-08T07:49:06.000Z</time>
      </trkpt>
      <trkpt lat="31.131911" lon="-82.259331">
        <ele>38.997735</ele>
        <time>2024-06-08T07:49:09.000Z</time>
      </trkpt>
      <trkpt lat="31.13205" lon="-82.25968">
        <ele>39.000024</ele>
        <time>2024-06-08T07:49:13.000Z</time>
      </trkpt>
      <trkpt lat="31.132455" lon="-82.260233">
        <ele>39.02388</ele>
        <time>2024-06-08T07:49:20.000Z</time>
      </trkpt>
      <trkpt lat="31.132635" lon="-82.260329">
        <ele>39.032678</ele>
        <time>2024-06-08T07:49:22.000Z</time>
      </trkpt>
      <trkpt lat="31.133718" lon="-82.260634">
        <ele>39.082732</ele>
        <time>2024-06-08T07:49:34.000Z</time>
      </trkpt>
      <trkpt lat="31.134077" lon="-82.260928">
        <ele>39.126744</ele>
        <time>2024-06-08T07:49:39.000Z</time>
      </trkpt>
      <trkpt lat="31.134165" lon="-82.26109">
        <ele>39.144656</ele>
        <time>2024-06-08T07:49:41.000Z</time>
      </trkpt>
      <trkpt lat="31.134194" lon="-82.261675">
        <ele>39.195271</ele>
        <time>2024-06-08T07:49:47.000Z</time>
      </trkpt>
      <trkpt lat="31.133168" lon="-82.262473">
        <ele>39.440084</ele>
        <time>2024-06-08T07:50:01.000Z</time>
      </trkpt>
      <trkpt lat="31.131656" lon="-82.263663">
        <ele>39.907702</ele>
        <time>2024-06-08T07:50:21.000Z</time>
      </trkpt>
      <trkpt lat="31.13144" lon="-82.263912">
        <ele>39.964768</ele>
        <time>2024-06-08T07:50:24.000Z</time>
      </trkpt>
      <trkpt lat="31.13132" lon="-82.264151">
        <ele>40.007584</ele>
        <time>2024-06-08T07:50:27.000Z</time>
      </trkpt>
      <trkpt lat="31.131282" lon="-82.264569">
        <ele>40.073851</ele>
        <time>2024-06-08T07:50:31.000Z</time>
      </trkpt>
      <trkpt lat="31.131321" lon="-82.264147">
        <ele>40.096336</ele>
        <time>2024-06-08T07:50:35.000Z</time>
      </trkpt>
      <trkpt lat="31.131449" lon="-82.263918">
        <ele>40.031286</ele>
        <time>2024-06-08T07:50:38.000Z</time>
      </trkpt>
      <trkpt lat="31.131662" lon="-82.263667">
        <ele>39.944558</ele>
        <time>2024-06-08T07:50:41.000Z</time>
      </trkpt>
      <trkpt lat="31.133181" lon="-82.262478">
        <ele>39.453279</ele>
        <time>2024-06-08T07:51:01.000Z</time>
      </trkpt>
      <trkpt lat="31.134211" lon="-82.261686">
        <ele>39.16022</ele>
        <time>2024-06-08T07:51:15.000Z</time>
      </trkpt>
      <trkpt lat="31.134164" lon="-82.261085">
        <ele>39.127108</ele>
        <time>2024-06-08T07:51:21.000Z</time>
      </trkpt>
      <trkpt lat="31.134062" lon="-82.260918">
        <ele>39.115395</ele>
        <time>2024-06-08T07:51:23.000Z</time>
      </trkpt>
      <trkpt lat="31.133707" lon="-82.260631">
        <ele>39.086589</ele>
        <time>2024-06-08T07:51:28.000Z</time>
      </trkpt>
      <trkpt lat="31.132645" lon="-82.260319">
        <ele>39.034256</ele>
        <time>2024-06-08T07:51:40.000Z</time>
      </trkpt>
      <trkpt lat="31.132445" lon="-82.260232">
        <ele>39.028754</ele>
        <time>2024-06-08T07:51:42.000Z</time>
      </trkpt>
      <trkpt lat="31.132049" lon="-82.259679">
        <ele>39.012217</ele>
        <time>2024-06-08T07:51:49.000Z</time>
      </trkpt>
      <trkpt lat="31.131926" lon="-82.259332">
        <ele>39.003501</ele>
        <time>2024-06-08T07:51:53.000Z</time>
      </trkpt>
      <trkpt lat="31.131865" lon="-82.258978">
        <ele>38.997623</ele>
        <time>2024-06-08T07:51:56.000Z</time>
      </trkpt>
      <trkpt lat="31.131867" lon="-82.25857">
        <ele>38.992923</ele>
        <time>2024-06-08T07:52:00.000Z</time>
      </trkpt>
      <trkpt lat="31.132013" lon="-82.258156">
        <ele>38.987753</ele>
        <time>2024-06-08T07:52:04.000Z</time>
      </trkpt>
      <trkpt lat="31.13381" lon="-82.254408">
        <ele>38.831643</ele>
        <time>2024-06-08T07:52:45.000Z</time>
      </trkpt>
      <trkpt lat="31.134918" lon="-82.252159">
        <ele>38.600452</ele>
        <time>2024-06-08T07:53:10.000Z</time>
      </trkpt>
      <trkpt lat="31.13513" lon="-82.251539">
        <ele>38.609097</ele>
        <time>2024-06-08T07:53:16.000Z</time>
      </trkpt>
      <trkpt lat="31.134214" lon="-82.244102">
        <ele>40.432422</ele>
        <time>2024-06-08T07:54:28.000Z</time>
      </trkpt>
      <trkpt lat="31.134104" lon="-82.239263">
        <ele>41.107847</ele>
        <time>2024-06-08T07:55:14.000Z</time>
      </trkpt>
      <trkpt lat="31.133887" lon="-82.237317">
        <ele>41.349946</ele>
        <time>2024-06-08T07:55:33.000Z</time>
      </trkpt>
      <trkpt lat="31.133808" lon="-82.236213">
        <ele>41.324214</ele>
        <time>2024-06-08T07:55:44.000Z</time>
      </trkpt>
      <trkpt lat="31.13343" lon="-82.2328">
        <ele>41.034013</ele>
        <time>2024-06-08T07:56:17.000Z</time>
      </trkpt>
      <trkpt lat="31.133426" lon="-82.232559">
        <ele>41.023865</ele>
        <time>2024-06-08T07:56:19.000Z</time>
      </trkpt>
      <trkpt lat="31.133581" lon="-82.231691">
        <ele>40.987429</ele>
        <time>2024-06-08T07:56:27.000Z</time>
      </trkpt>
      <trkpt lat="31.133948" lon="-82.230875">
        <ele>40.928576</ele>
        <time>2024-06-08T07:56:36.000Z</time>
      </trkpt>
      <trkpt lat="31.134125" lon="-82.230631">
        <ele>40.860241</ele>
        <time>2024-06-08T07:56:39.000Z</time>
      </trkpt>
      <trkpt lat="31.134746" lon="-82.229938">
        <ele>40.639732</ele>
        <time>2024-06-08T07:56:49.000Z</time>
      </trkpt>
      <trkpt lat="31.140789" lon="-82.222924">
        <ele>36.254317</ele>
        <time>2024-06-08T07:58:24.000Z</time>
      </trkpt>
      <trkpt lat="31.141024" lon="-82.222644">
        <ele>36.016274</ele>
        <time>2024-06-08T07:58:28.000Z</time>
      </trkpt>
      <trkpt lat="31.141446" lon="-82.222008">
        <ele>35.528096</ele>
        <time>2024-06-08T07:58:36.000Z</time>
      </trkpt>
      <trkpt lat="31.141486" lon="-82.221267">
        <ele>35.248467</ele>
        <time>2024-06-08T07:58:43.000Z</time>
      </trkpt>
      <trkpt lat="31.141364" lon="-82.220902">
        <ele>35.108281</ele>
        <time>2024-06-08T07:58:47.000Z</time>
      </trkpt>
      <trkpt lat="31.140746" lon="-82.219901">
        <ele>34.726531</ele>
        <time>2024-06-08T07:58:59.000Z</time>
      </trkpt>
      <trkpt lat="31.140339" lon="-82.219371">
        <ele>34.678248</ele>
        <time>2024-06-08T07:59:06.000Z</time>
      </trkpt>
      <trkpt lat="31.139604" lon="-82.218216">
        <ele>34.586355</ele>
        <time>2024-06-08T07:59:20.000Z</time>
      </trkpt>
      <trkpt lat="31.138907" lon="-82.21751">
        <ele>34.534803</ele>
        <time>2024-06-08T07:59:30.000Z</time>
      </trkpt>
      <trkpt lat="31.137861" lon="-82.216719">
        <ele>34.465311</ele>
        <time>2024-06-08T07:59:44.000Z</time>
      </trkpt>
      <trkpt lat="31.13652" lon="-82.215741">
        <ele>34.350856</ele>
        <time>2024-06-08T08:00:02.000Z</time>
      </trkpt>
      <trkpt lat="31.136148" lon="-82.215499">
        <ele>34.300811</ele>
        <time>2024-06-08T08:00:07.000Z</time>
      </trkpt>
      <trkpt lat="31.135762" lon="-82.215034">
        <ele>34.23514</ele>
        <time>2024-06-08T08:00:13.000Z</time>
      </trkpt>
      <trkpt lat="31.135642" lon="-82.214651">
        <ele>34.193118</ele>
        <time>2024-06-08T08:00:17.000Z</time>
      </trkpt>
      <trkpt lat="31.135655" lon="-82.213641">
        <ele>34.293545</ele>
        <time>2024-06-08T08:00:27.000Z</time>
      </trkpt>
      <trkpt lat="31.135555" lon="-82.213359">
        <ele>34.3299</ele>
        <time>2024-06-08T08:00:30.000Z</time>
      </trkpt>
      <trkpt lat="31.135386" lon="-82.213156">
        <ele>34.36246</ele>
        <time>2024-06-08T08:00:33.000Z</time>
      </trkpt>
      <trkpt lat="31.135234" lon="-82.212866">
        <ele>34.402795</ele>
        <time>2024-06-08T08:00:36.000Z</time>
      </trkpt>
      <trkpt lat="31.135201" lon="-82.212571">
        <ele>34.489932</ele>
        <time>2024-06-08T08:00:39.000Z</time>
      </trkpt>
      <trkpt lat="31.135255" lon="-82.21224">
        <ele>34.85995</ele>
        <time>2024-06-08T08:00:42.000Z</time>
      </trkpt>
      <trkpt lat="31.135394" lon="-82.211947">
        <ele>35.224561</ele>
        <time>2024-06-08T08:00:45.000Z</time>
      </trkpt>
      <trkpt lat="31.136178" lon="-82.211284">
        <ele>36.444536</ele>
        <time>2024-06-08T08:00:56.000Z</time>
      </trkpt>
      <trkpt lat="31.136328" lon="-82.211033">
        <ele>36.744025</ele>
        <time>2024-06-08T08:00:59.000Z</time>
      </trkpt>
      <trkpt lat="31.136394" lon="-82.210843">
        <ele>36.854043</ele>
        <time>2024-06-08T08:01:01.000Z</time>
      </trkpt>
      <trkpt lat="31.136391" lon="-82.210522">
        <ele>37.019747</ele>
        <time>2024-06-08T08:01:04.000Z</time>
      </trkpt>
      <trkpt lat="31.136248" lon="-82.209703">
        <ele>37.460131</ele>
        <time>2024-06-08T08:01:12.000Z</time>
      </trkpt>
      <trkpt lat="31.136257" lon="-82.209386">
        <ele>37.625092</ele>
        <time>2024-06-08T08:01:15.000Z</time>
      </trkpt>
      <trkpt lat="31.136311" lon="-82.209094">
        <ele>37.790256</ele>
        <time>2024-06-08T08:01:18.000Z</time>
      </trkpt>
      <trkpt lat="31.136534" lon="-82.208558">
        <ele>37.355597</ele>
        <time>2024-06-08T08:01:24.000Z</time>
      </trkpt>
      <trkpt lat="31.136723" lon="-82.208398">
        <ele>37.120805</ele>
        <time>2024-06-08T08:01:27.000Z</time>
      </trkpt>
      <trkpt lat="31.137028" lon="-82.208282">
        <ele>36.785611</ele>
        <time>2024-06-08T08:01:31.000Z</time>
      </trkpt>
      <trkpt lat="31.137226" lon="-82.208266">
        <ele>36.595142</ele>
        <time>2024-06-08T08:01:33.000Z</time>
      </trkpt>
      <trkpt lat="31.137399" lon="-82.208318">
        <ele>36.414628</ele>
        <time>2024-06-08T08:01:35.000Z</time>
      </trkpt>
      <trkpt lat="31.137689" lon="-82.208515">
        <ele>36.084075</ele>
        <time>2024-06-08T08:01:39.000Z</time>
      </trkpt>
      <trkpt lat="31.138343" lon="-82.20899">
        <ele>35.64188</ele>
        <time>2024-06-08T08:01:48.000Z</time>
      </trkpt>
      <trkpt lat="31.141676" lon="-82.211484">
        <ele>34.406665</ele>
        <time>2024-06-08T08:02:32.000Z</time>
      </trkpt>
      <trkpt lat="31.142013" lon="-82.211929">
        <ele>34.548138</ele>
        <time>2024-06-08T08:02:38.000Z</time>
      </trkpt>
      <trkpt lat="31.143888" lon="-82.213646">
        <ele>37.34994</ele>
        <time>2024-06-08T08:03:04.000Z</time>
      </trkpt>
      <trkpt lat="31.146081" lon="-82.21561">
        <ele>39.331896</ele>
        <time>2024-06-08T08:03:35.000Z</time>
      </trkpt>
      <trkpt lat="31.146554" lon="-82.216003">
        <ele>39.59027</ele>
        <time>2024-06-08T08:03:41.000Z</time>
      </trkpt>
      <trkpt lat="31.147641" lon="-82.21682">
        <ele>39.744689</ele>
        <time>2024-06-08T08:03:55.000Z</time>
      </trkpt>
      <trkpt lat="31.149268" lon="-82.217986">
        <ele>40.163404</ele>
        <time>2024-06-08T08:04:16.000Z</time>
      </trkpt>
      <trkpt lat="31.149863" lon="-82.218291">
        <ele>40.299062</ele>
        <time>2024-06-08T08:04:23.000Z</time>
      </trkpt>
      <trkpt lat="31.150542" lon="-82.218545">
        <ele>40.427195</ele>
        <time>2024-06-08T08:04:31.000Z</time>
      </trkpt>
      <trkpt lat="31.151095" lon="-82.218656">
        <ele>40.530606</ele>
        <time>2024-06-08T08:04:37.000Z</time>
      </trkpt>
      <trkpt lat="31.151557" lon="-82.21867">
        <ele>40.535344</ele>
        <time>2024-06-08T08:04:42.000Z</time>
      </trkpt>
      <trkpt lat="31.155437" lon="-82.218648">
        <ele>40.117937</ele>
        <time>2024-06-08T08:05:25.000Z</time>
      </trkpt>
      <trkpt lat="31.155962" lon="-82.218717">
        <ele>40.068375</ele>
        <time>2024-06-08T08:05:31.000Z</time>
      </trkpt>
      <trkpt lat="31.156406" lon="-82.218886">
        <ele>40.02348</ele>
        <time>2024-06-08T08:05:36.000Z</time>
      </trkpt>
      <trkpt lat="31.158789" lon="-82.220852">
        <ele>39.999998</ele>
        <time>2024-06-08T08:06:08.000Z</time>
      </trkpt>
      <trkpt lat="31.15942" lon="-82.221521">
        <ele>40</ele>
        <time>2024-06-08T08:06:17.000Z</time>
      </trkpt>
      <trkpt lat="31.159649" lon="-82.221896">
        <ele>40.000004</ele>
        <time>2024-06-08T08:06:21.000Z</time>
      </trkpt>
      <trkpt lat="31.160137" lon="-82.222922">
        <ele>40</ele>
        <time>2024-06-08T08:06:32.000Z</time>
      </trkpt>
      <trkpt lat="31.160423" lon="-82.22342">
        <ele>39.996921</ele>
        <time>2024-06-08T08:06:38.000Z</time>
      </trkpt>
      <trkpt lat="31.160628" lon="-82.223628">
        <ele>39.981431</ele>
        <time>2024-06-08T08:06:41.000Z</time>
      </trkpt>
      <trkpt lat="31.161104" lon="-82.223901">
        <ele>39.952878</ele>
        <time>2024-06-08T08:06:47.000Z</time>
      </trkpt>
      <trkpt lat="31.161694" lon="-82.224035">
        <ele>39.919472</ele>
        <time>2024-06-08T08:06:54.000Z</time>
      </trkpt>
      <trkpt lat="31.162601" lon="-82.223979">
        <ele>39.727852</ele>
        <time>2024-06-08T08:07:04.000Z</time>
      </trkpt>
      <trkpt lat="31.164227" lon="-82.223701">
        <ele>39.174499</ele>
        <time>2024-06-08T08:07:22.000Z</time>
      </trkpt>
      <trkpt lat="31.164929" lon="-82.22367">
        <ele>38.889184</ele>
        <time>2024-06-08T08:07:30.000Z</time>
      </trkpt>
      <trkpt lat="31.16605" lon="-82.223703">
        <ele>38.471811</ele>
        <time>2024-06-08T08:07:42.000Z</time>
      </trkpt>
      <trkpt lat="31.167891" lon="-82.224112">
        <ele>38.112708</ele>
        <time>2024-06-08T08:08:03.000Z</time>
      </trkpt>
      <trkpt lat="31.166056" lon="-82.223697">
        <ele>38.47236</ele>
        <time>2024-06-08T08:08:24.000Z</time>
      </trkpt>
      <trkpt lat="31.164927" lon="-82.223666">
        <ele>38.900665</ele>
        <time>2024-06-08T08:08:37.000Z</time>
      </trkpt>
      <trkpt lat="31.16423" lon="-82.223708">
        <ele>39.166403</ele>
        <time>2024-06-08T08:08:45.000Z</time>
      </trkpt>
      <trkpt lat="31.162585" lon="-82.223973">
        <ele>39.717286</ele>
        <time>2024-06-08T08:09:03.000Z</time>
      </trkpt>
      <trkpt lat="31.161688" lon="-82.224035">
        <ele>39.900412</ele>
        <time>2024-06-08T08:09:13.000Z</time>
      </trkpt>
      <trkpt lat="31.161106" lon="-82.223895">
        <ele>39.987423</ele>
        <time>2024-06-08T08:09:20.000Z</time>
      </trkpt>
      <trkpt lat="31.16064" lon="-82.223633">
        <ele>39.991441</ele>
        <time>2024-06-08T08:09:26.000Z</time>
      </trkpt>
      <trkpt lat="31.160434" lon="-82.223412">
        <ele>39.993617</ele>
        <time>2024-06-08T08:09:29.000Z</time>
      </trkpt>
      <trkpt lat="31.160132" lon="-82.222925">
        <ele>39.997598</ele>
        <time>2024-06-08T08:09:35.000Z</time>
      </trkpt>
      <trkpt lat="31.159642" lon="-82.221908">
        <ele>39.999994</ele>
        <time>2024-06-08T08:09:46.000Z</time>
      </trkpt>
      <trkpt lat="31.159414" lon="-82.221519">
        <ele>40.000007</ele>
        <time>2024-06-08T08:09:50.000Z</time>
      </trkpt>
      <trkpt lat="31.158793" lon="-82.220863">
        <ele>40.000005</ele>
        <time>2024-06-08T08:09:59.000Z</time>
      </trkpt>
      <trkpt lat="31.156405" lon="-82.218903">
        <ele>40.032615</ele>
        <time>2024-06-08T08:10:31.000Z</time>
      </trkpt>
      <trkpt lat="31.155951" lon="-82.218727">
        <ele>40.044878</ele>
        <time>2024-06-08T08:10:36.000Z</time>
      </trkpt>
      <trkpt lat="31.155434" lon="-82.218651">
        <ele>40.103542</ele>
        <time>2024-06-08T08:10:42.000Z</time>
      </trkpt>
      <trkpt lat="31.151563" lon="-82.218662">
        <ele>40.500327</ele>
        <time>2024-06-08T08:11:25.000Z</time>
      </trkpt>
      <trkpt lat="31.151096" lon="-82.218641">
        <ele>40.497384</ele>
        <time>2024-06-08T08:11:30.000Z</time>
      </trkpt>
      <trkpt lat="31.150533" lon="-82.218537">
        <ele>40.493831</ele>
        <time>2024-06-08T08:11:36.000Z</time>
      </trkpt>
      <trkpt lat="31.14986" lon="-82.218289">
        <ele>40.313735</ele>
        <time>2024-06-08T08:11:44.000Z</time>
      </trkpt>
      <trkpt lat="31.149267" lon="-82.217988">
        <ele>40.140717</ele>
        <time>2024-06-08T08:11:51.000Z</time>
      </trkpt>
      <trkpt lat="31.147639" lon="-82.216827">
        <ele>39.776663</ele>
        <time>2024-06-08T08:12:12.000Z</time>
      </trkpt>
      <trkpt lat="31.146551" lon="-82.216017">
        <ele>39.663892</ele>
        <time>2024-06-08T08:12:26.000Z</time>
      </trkpt>
      <trkpt lat="31.146084" lon="-82.215599">
        <ele>39.63044</ele>
        <time>2024-06-08T08:12:33.000Z</time>
      </trkpt>
      <trkpt lat="31.143905" lon="-82.21366">
        <ele>39.613585</ele>
        <time>2024-06-08T08:13:03.000Z</time>
      </trkpt>
    </trkseg>
  </trk>
</gpx>

<!--
Performance optimized by W3 Total Cache. Learn more: https://www.boldgrid.com/w3-total-cache/?utm_source=w3tc&utm_medium=footer_comment&utm_campaign=free_plugin

Page Caching using Disk: Enhanced{w3tc_pagecache_reject_reason} 

Served from: www.aquabike.world @ 2026-05-10 17:34:36 by W3 Total Cache
-->